Terminal Aerodrome Forecast
Issued by NWS

Home | Current Version | Previous Version | Text Only | Print | Product List | Glossary On
Versions: 1 2 3 4 5 6 7 8 9 10 11 12 13 14 15 16 17 18 19 20
387
FTUS46 KSEW 221120
TAFBFI
TAF
KBFI 221120Z 2212/2312 15004KT P6SM OVC100
     FM221800 29004KT P6SM SCT100 SCT200
     FM230600 18004KT P6SM BKN200=

USA.gov is the U.S. government's official web portal to all federal, state and local government web resources and services.